Weather History for Monument Pass, CO

Change the Weather History Date:

Thursday, October 3, 2013

  Actual Average (KAPA) Record (KAPA)
Temperature  
Mean Temperature 52 °F -  
Max Temperature 69 °F 67 °F 84 °F (2005)
Min Temperature 35 °F 39 °F 32 °F (1999)
Degree Days  
Heating Degree Days 13    
Growing Degree Days 2 (Base 50)    
Moisture  
Dew Point 35 °F    
Average Humidity 63    
Maximum Humidity 100    
Minimum Humidity 21    
Precipitation  
Precipitation 0.00 in - - ()
Sea Level Pressure  
Sea Level Pressure 29.87 in    
Wind  
Wind Speed 8 mph (SW)    
Max Wind Speed 21 mph    
Max Gust Speed 33 mph    
Visibility 9 miles    
Events Fog , Rain    
Averages and records for this station are not official NWS values.
T = Trace of Precipitation, MM = Missing Value Source: NWS Daily Summary

Daily Weather History Graph

Daily Weather History Graph

Search for Another Location

Airport:

Trip Planner

Search our weather history database for the weather conditions in past years. The results will help you decide how hot, cold, wet, or windy it might be!

Date:

Astronomy

Oct. 03, 2013 Rise Set
Actual Time 6:56 AM MDT 6:37 PM MDT
Civil Twilight 6:30 AM MDT 7:04 PM MDT
Nautical Twilight 5:59 AM MDT 7:35 PM MDT
Astronomical Twilight 5:27 AM MDT 8:06 PM MDT
Moon 5:33 AM MDT (10/3) 5:47 PM MDT (10/3)
Length of Visible Light 12h 34m
Length of Day
11h 40m
Waning Crescent, 2% of the Moon is Illuminated
Oct 3
Waning Crescent
Oct 4
New
Oct 11
First Quarter
Oct 18
Full
Oct 26
Last Quarter

Hourly Weather History & Observations

Time (MDT) Temp. Windchill Dew Point Humidity Pressure Visibility Wind Dir Wind Speed Gust Speed Precip Events Conditions
12:13 AM 41.0 °F 39.0 °F 37.4 °F 87% 29.99 in 10.0 mi WNW 3.5 mph - N/A   Clear
12:33 AM 41.0 °F 38.0 °F 37.4 °F 87% 29.98 in 10.0 mi West 4.6 mph - N/A   Clear
12:53 AM 41.0 °F 37.1 °F 37.4 °F 87% 29.98 in 10.0 mi West 5.8 mph - N/A   Clear
1:11 AM 41.0 °F 38.0 °F 37.4 °F 87% 29.97 in 10.0 mi West 4.6 mph - N/A   Clear
1:33 AM 41.0 °F 36.4 °F 37.4 °F 87% 29.97 in 10.0 mi WNW 6.9 mph - N/A   Clear
1:53 AM 41.0 °F 37.1 °F 37.4 °F 87% 29.97 in 10.0 mi WNW 5.8 mph - N/A   Clear
2:12 AM 39.2 °F - 37.4 °F 93% 29.97 in 10.0 mi Calm Calm - N/A   Clear
2:32 AM 37.4 °F 34.9 °F 35.6 °F 93% 29.95 in 10.0 mi South 3.5 mph - N/A   Clear
2:52 AM 37.4 °F 32.1 °F 35.6 °F 93% 29.94 in 10.0 mi WSW 6.9 mph - N/A   Clear
3:12 AM 37.4 °F 31.4 °F 35.6 °F 93% 29.93 in 10.0 mi West 8.1 mph - N/A   Clear
3:33 AM 37.4 °F 30.3 °F 35.6 °F 93% 29.93 in 10.0 mi WSW 10.4 mph - N/A   Clear
3:53 AM 35.6 °F 31.7 °F 33.8 °F 93% 29.92 in 10.0 mi SSW 4.6 mph - N/A   Clear
4:13 AM 35.6 °F 29.9 °F 35.6 °F 100% 29.92 in 10.0 mi SSW 6.9 mph - N/A   Clear
4:33 AM 35.6 °F 29.9 °F 35.6 °F 100% 29.91 in 10.0 mi SW 6.9 mph - N/A   Clear
4:53 AM 41.0 °F 35.2 °F 35.6 °F 81% 29.91 in 10.0 mi SW 9.2 mph - N/A   Clear
5:13 AM 37.4 °F 31.4 °F 35.6 °F 93% 29.91 in 10.0 mi SSW 8.1 mph - N/A   Clear
5:33 AM 37.4 °F 31.4 °F 35.6 °F 93% 29.91 in 10.0 mi SSW 8.1 mph - N/A   Clear
5:53 AM 37.4 °F 31.4 °F 33.8 °F 87% 29.91 in 10.0 mi SSW 8.1 mph - N/A   Clear
6:13 AM 37.4 °F 30.8 °F 32.0 °F 81% 29.90 in 10.0 mi West 9.2 mph - N/A   Clear
6:33 AM 37.4 °F - 32.0 °F 81% 29.90 in 10.0 mi Calm Calm - N/A   Clear
6:52 AM 35.6 °F - 32.0 °F 87% 29.90 in 10.0 mi Calm Calm - N/A   Clear
7:12 AM 44.6 °F 40.2 °F 30.2 °F 57% 29.90 in 10.0 mi SW 8.1 mph - N/A   Clear
7:33 AM 42.8 °F 40.1 °F 32.0 °F 66% 29.91 in 10.0 mi South 4.6 mph - N/A   Clear
7:53 AM 48.2 °F - 32.0 °F 54% 29.91 in 10.0 mi West 5.8 mph - N/A   Clear
8:13 AM 51.8 °F - 32.0 °F 47% 29.91 in 10.0 mi SW 8.1 mph - N/A   Clear
8:33 AM 55.4 °F - 32.0 °F 41% 29.91 in 10.0 mi WSW 10.4 mph - N/A   Clear
8:53 AM 60.8 °F - 28.4 °F 29% 29.91 in 10.0 mi West 10.4 mph - N/A   Clear
9:13 AM 60.8 °F - 28.4 °F 29% 29.91 in 10.0 mi West 9.2 mph - N/A   Clear
9:32 AM 62.6 °F - 30.2 °F 30% 29.91 in 10.0 mi West 6.9 mph - N/A   Clear
9:53 AM 62.6 °F - 28.4 °F 27% 29.90 in 10.0 mi West 4.6 mph - N/A   Clear
10:13 AM 64.4 °F - 26.6 °F 24% 29.89 in 10.0 mi West 10.4 mph - N/A   Clear
10:33 AM 64.4 °F - 26.6 °F 24% 29.89 in 10.0 mi WSW 9.2 mph - N/A   Clear
10:53 AM 66.2 °F - 26.6 °F 23% 29.89 in 10.0 mi SSW 4.6 mph - N/A   Clear
11:13 AM 68.0 °F - 26.6 °F 21% 29.88 in 10.0 mi South 6.9 mph - N/A   Clear
11:33 AM 68.0 °F - 32.0 °F 26% 29.88 in 10.0 mi East 8.1 mph - N/A   Clear
11:53 AM 68.0 °F - 28.4 °F 23% 29.86 in 10.0 mi South 8.1 mph - N/A   Clear
12:13 PM 68.0 °F - 35.6 °F 30% 29.85 in 10.0 mi South 16.1 mph 20.7 mph N/A   Clear
12:33 PM 68.0 °F - 32.0 °F 26% 29.84 in 10.0 mi SSE 13.8 mph 21.9 mph N/A   Clear
12:53 PM 68.0 °F - 32.0 °F 26% 29.83 in 10.0 mi South 17.3 mph 25.3 mph N/A   Clear
1:13 PM 68.0 °F - 30.2 °F 24% 29.83 in 10.0 mi SSE 18.4 mph 24.2 mph N/A   Clear
1:33 PM 69.8 °F - 28.4 °F 21% 29.82 in 10.0 mi South 17.3 mph 24.2 mph N/A   Clear
1:53 PM 69.8 °F - 28.4 °F 21% 29.81 in 10.0 mi SSE 19.6 mph 24.2 mph N/A   Clear
2:13 PM 68.0 °F - 30.2 °F 24% 29.81 in 10.0 mi South 20.7 mph 26.5 mph N/A   Clear
2:33 PM 68.0 °F - 30.2 °F 24% 29.81 in 10.0 mi South 20.7 mph 25.3 mph N/A   Clear
2:53 PM 68.0 °F - 28.4 °F 23% 29.80 in 10.0 mi South 20.7 mph 24.2 mph N/A   Clear
3:13 PM 68.0 °F - 28.4 °F 23% 29.80 in 10.0 mi SSE 19.6 mph 26.5 mph N/A   Clear
3:33 PM 68.0 °F - 28.4 °F 23% 29.79 in 10.0 mi South 18.4 mph 33.4 mph N/A   Clear
3:53 PM 68.0 °F - 30.2 °F 24% 29.79 in 10.0 mi SSE 16.1 mph 27.6 mph N/A   Clear
4:13 PM 68.0 °F - 32.0 °F 26% 29.79 in 10.0 mi SSE 19.6 mph 24.2 mph N/A   Clear
4:33 PM 66.2 °F - 32.0 °F 28% 29.79 in 10.0 mi SSE 12.7 mph 19.6 mph N/A   Clear
4:53 PM 66.2 °F - 30.2 °F 26% 29.80 in 10.0 mi South 17.3 mph 21.9 mph N/A   Clear
5:13 PM 62.6 °F - 30.2 °F 30% 29.80 in 10.0 mi South 12.7 mph - N/A   Clear
5:33 PM 55.4 °F - 42.8 °F 63% 29.81 in 10.0 mi West 11.5 mph - N/A   Clear
5:53 PM 53.6 °F - 42.8 °F 67% 29.81 in 10.0 mi West 8.1 mph - N/A   Clear
6:12 PM 53.6 °F - 42.8 °F 67% 29.81 in 10.0 mi West 9.2 mph - N/A   Clear
6:32 PM 51.8 °F - 41.0 °F 67% 29.82 in 10.0 mi West 15.0 mph - N/A   Clear
6:52 PM 50.0 °F - 41.0 °F 71% 29.82 in 10.0 mi WNW 13.8 mph - N/A   Clear
7:13 PM 46.4 °F 41.9 °F 42.8 °F 87% 29.84 in 10.0 mi NW 9.2 mph - N/A   Clear
7:33 PM 46.4 °F 42.9 °F 44.6 °F 93% 29.84 in 10.0 mi North 6.9 mph - N/A   Clear
7:53 PM 48.2 °F - 44.6 °F 87% 29.85 in 10.0 mi North 6.9 mph - N/A   Mostly Cloudy
8:12 PM 46.4 °F 42.9 °F 44.6 °F 93% 29.86 in 7.0 mi NNW 6.9 mph - N/A   Overcast
8:33 PM 46.4 °F 41.5 °F 44.6 °F 93% 29.86 in 5.0 mi NNW 10.4 mph - N/A   Overcast
8:53 PM 44.6 °F 40.2 °F 44.6 °F 100% 29.85 in 1.5 mi North 8.1 mph - N/A   Overcast
9:13 PM 44.6 °F 39.7 °F 44.6 °F 100% 29.85 in 0.5 mi North 9.2 mph - N/A Fog Fog
9:33 PM 44.6 °F 40.7 °F 44.6 °F 100% 29.85 in 0.2 mi North 6.9 mph - N/A Fog Fog
10:33 PM 44.6 °F 40.7 °F 44.6 °F 100% 29.83 in 1.5 mi NE 6.9 mph - N/A   Overcast
10:53 PM 44.6 °F 40.7 °F 42.8 °F 93% 29.83 in 1.2 mi NE 6.9 mph - N/A Rain Light Rain
11:13 PM 42.8 °F 38.0 °F 42.8 °F 100% 29.83 in 2.0 mi NE 8.1 mph - N/A Rain Light Rain
11:33 PM 42.8 °F 37.5 °F 42.8 °F 100% 29.82 in 1.2 mi ENE 9.2 mph - N/A Rain Light Rain
11:53 PM 42.8 °F 38.0 °F 42.8 °F 100% 29.81 in 1.0 mi NE 8.1 mph - N/A Rain Light Rain